createdAt,value
2022-09-24T00:01:56.719Z,4.33
2022-09-24T00:06:58.397Z,3.13
2022-09-24T00:12:01.057Z,3.13
2022-09-24T00:17:04.016Z,3.47
2022-09-24T00:22:06.088Z,2.93
2022-09-24T00:27:07.681Z,3.00
2022-09-24T00:32:10.646Z,4.67
2022-09-24T00:37:12.722Z,2.83
2022-09-24T00:42:14.728Z,3.87
2022-09-24T00:47:29.854Z,4.17
2022-09-24T00:52:32.158Z,3.80
2022-09-24T00:57:35.044Z,3.97
2022-09-24T01:02:42.371Z,5.17
2022-09-24T01:07:44.287Z,5.37
2022-09-24T01:12:57.129Z,3.33
2022-09-24T01:18:07.825Z,4.43
2022-09-24T01:23:34.366Z,5.50
2022-09-24T01:28:53.720Z,4.47
2022-09-24T01:34:01.060Z,3.93
2022-09-24T01:39:07.065Z,5.17
2022-09-24T01:44:10.552Z,4.30
2022-09-24T01:49:14.038Z,5.37
2022-09-24T01:54:21.908Z,4.87
2022-09-24T01:59:31.878Z,5.90
2022-09-24T02:04:40.812Z,6.07
2022-09-24T02:09:44.256Z,5.20
2022-09-24T02:14:52.041Z,5.87
2022-09-24T02:19:59.121Z,5.23
2022-09-24T02:25:05.121Z,6.60
2022-09-24T02:30:08.667Z,5.57
2022-09-24T02:35:12.777Z,4.43
2022-09-24T02:40:15.731Z,4.10
2022-09-24T02:45:17.951Z,4.27
2022-09-24T02:50:20.972Z,5.93
2022-09-24T02:55:23.059Z,7.10
2022-09-24T03:00:25.143Z,5.43
2022-09-24T03:05:28.317Z,5.90
2022-09-24T03:10:29.920Z,4.73
2022-09-24T03:15:31.720Z,5.80
2022-09-24T03:20:34.691Z,4.13
2022-09-24T03:25:36.727Z,5.80
2022-09-24T03:30:38.331Z,4.50
2022-09-24T03:35:41.866Z,4.83
2022-09-24T03:40:43.962Z,5.50
2022-09-24T03:45:46.063Z,5.63
2022-09-24T03:50:50.053Z,4.47
2022-09-24T03:55:55.265Z,4.60
2022-09-24T04:00:57.153Z,4.97
2022-09-24T04:06:00.201Z,5.17
2022-09-24T04:11:01.886Z,5.03
2022-09-24T04:16:04.531Z,5.63
2022-09-24T04:21:08.918Z,6.03
2022-09-24T04:26:10.896Z,6.93
2022-09-24T04:31:12.645Z,5.60
2022-09-24T04:36:16.073Z,7.83
2022-09-24T04:41:17.849Z,6.67
2022-09-24T04:46:19.531Z,5.83
2022-09-24T04:51:22.859Z,6.83
2022-09-24T04:56:24.615Z,6.27
2022-09-24T05:01:27.078Z,5.60
2022-09-24T05:06:30.311Z,6.43
2022-09-24T05:11:32.167Z,6.37
2022-09-24T05:16:34.457Z,5.73
2022-09-24T05:21:37.915Z,6.77
2022-09-24T05:26:39.859Z,6.57
2022-09-24T05:31:41.868Z,7.40
2022-09-24T05:36:45.332Z,8.13
2022-09-24T05:41:47.904Z,5.90
2022-09-24T05:46:51.152Z,6.43
2022-09-24T05:51:56.738Z,6.47
2022-09-24T05:56:58.739Z,7.03
2022-09-24T06:02:00.467Z,7.93
2022-09-24T06:07:03.473Z,6.37
2022-09-24T06:12:07.499Z,7.07
2022-09-24T06:17:09.664Z,7.17
2022-09-24T06:22:13.114Z,7.87
2022-09-24T06:27:15.154Z,6.27
2022-09-24T06:32:17.175Z,6.43
2022-09-24T06:37:20.198Z,8.00
2022-09-24T06:42:21.811Z,6.13
2022-09-24T06:47:23.579Z,6.63
2022-09-24T06:52:29.508Z,6.47
2022-09-24T06:57:31.568Z,6.37
2022-09-24T07:02:33.473Z,5.80
2022-09-24T07:07:36.670Z,7.30
2022-09-24T07:12:41.461Z,6.73
2022-09-24T07:17:43.336Z,5.43
2022-09-24T07:22:46.704Z,6.23
2022-09-24T07:27:48.804Z,7.07
2022-09-24T07:32:55.436Z,5.13
2022-09-24T07:38:00.076Z,6.57
2022-09-24T07:43:01.762Z,5.70
2022-09-24T07:48:05.450Z,7.70
2022-09-24T07:53:10.331Z,6.97
2022-09-24T07:58:15.321Z,4.97
2022-09-24T08:03:16.992Z,5.30
2022-09-24T08:08:19.981Z,4.80
2022-09-24T08:13:26.863Z,5.67
2022-09-24T08:18:31.759Z,8.27
2022-09-24T08:23:36.169Z,8.67
2022-09-24T08:28:39.136Z,5.63
2022-09-24T08:33:41.316Z,5.00
2022-09-24T08:38:44.393Z,6.07
2022-09-24T08:43:54.970Z,5.13
2022-09-24T08:48:57.975Z,6.07
2022-09-24T08:54:06.419Z,6.43
2022-09-24T08:59:23.117Z,5.13
2022-09-24T09:04:29.103Z,5.17
2022-09-24T09:09:43.251Z,9.23
2022-09-24T09:14:54.417Z,5.23
2022-09-24T09:19:58.432Z,5.87
2022-09-24T09:25:13.101Z,5.50
2022-09-24T09:30:18.305Z,4.70
2022-09-24T09:35:26.152Z,6.63
2022-09-24T09:40:35.736Z,10.17
2022-09-24T09:45:44.643Z,4.83
2022-09-24T09:50:48.646Z,4.07
2022-09-24T09:55:56.975Z,4.57
2022-09-24T10:01:07.203Z,6.20
2022-09-24T10:06:10.934Z,5.47
2022-09-24T10:11:16.593Z,3.97
2022-09-24T10:16:18.894Z,4.40
2022-09-24T10:21:31.188Z,4.77
2022-09-24T10:26:40.931Z,5.67
2022-09-24T10:31:50.986Z,6.70
2022-09-24T10:37:19.801Z,5.63
2022-09-24T10:42:28.529Z,4.43
2022-09-24T10:48:08.726Z,3.93
2022-09-24T10:53:20.254Z,5.30
2022-09-24T10:58:57.352Z,5.67
2022-09-24T11:04:27.583Z,3.90
2022-09-24T11:09:53.207Z,4.43
2022-09-24T11:15:31.653Z,3.90
2022-09-24T11:20:40.795Z,3.53
2022-09-24T11:25:59.867Z,4.40
2022-09-24T11:31:32.401Z,4.10
2022-09-24T11:36:57.140Z,3.27
2022-09-24T11:42:30.650Z,3.87
2022-09-24T11:48:21.113Z,4.33
2022-09-24T11:53:40.879Z,8.73
2022-09-24T11:59:09.371Z,5.43
2022-09-24T12:04:29.836Z,3.60
2022-09-24T12:09:37.041Z,5.63
2022-09-24T12:14:48.226Z,4.07
2022-09-24T12:19:56.507Z,4.97
2022-09-24T12:25:00.387Z,2.97
2022-09-24T12:30:15.585Z,3.47
2022-09-24T12:35:32.377Z,3.03
2022-09-24T12:41:10.186Z,3.13
2022-09-24T12:46:20.227Z,3.07
2022-09-24T12:51:24.477Z,5.87
2022-09-24T12:56:29.454Z,2.23
2022-09-24T13:01:33.001Z,2.53
2022-09-24T13:06:38.036Z,3.17
2022-09-24T13:11:40.402Z,2.27
2022-09-24T13:16:45.854Z,2.40
2022-09-24T13:21:56.768Z,2.17
2022-09-24T13:27:21.088Z,2.43
2022-09-24T13:32:23.160Z,1.70
2022-09-24T13:37:34.586Z,1.57
2022-09-24T13:42:45.723Z,1.53
2022-09-24T13:47:51.656Z,3.87
2022-09-24T13:52:58.314Z,2.37
2022-09-24T13:58:00.626Z,2.20
2022-09-24T14:03:14.429Z,1.87
2022-09-24T14:08:21.315Z,2.30
2022-09-24T14:13:25.553Z,2.73
2022-09-24T14:18:28.754Z,2.77
2022-09-24T14:23:38.169Z,2.80
2022-09-24T14:28:40.121Z,4.40
2022-09-24T14:33:42.176Z,2.53
2022-09-24T14:38:54.029Z,3.07
2022-09-24T14:44:01.132Z,2.27
2022-09-24T14:49:07.155Z,3.77
2022-09-24T14:54:23.784Z,4.77
2022-09-24T14:59:30.116Z,4.63
2022-09-24T15:04:31.954Z,2.73
2022-09-24T15:09:35.215Z,2.43
2022-09-24T15:14:37.241Z,3.00
2022-09-24T15:19:39.224Z,2.83
2022-09-24T15:24:42.225Z,2.37
2022-09-24T15:29:43.930Z,3.07
2022-09-24T15:34:46.377Z,2.63
2022-09-24T15:39:50.246Z,2.97
2022-09-24T15:44:52.614Z,2.53
2022-09-24T15:49:54.597Z,4.57
2022-09-24T15:55:00.427Z,3.23
2022-09-24T16:00:02.648Z,2.60
2022-09-24T16:05:11.055Z,2.40
2022-09-24T16:10:15.290Z,3.13
2022-09-24T16:15:17.090Z,2.97
2022-09-24T16:20:19.183Z,4.20
2022-09-24T16:25:23.147Z,4.17
2022-09-24T16:30:25.296Z,3.73
2022-09-24T16:35:27.165Z,3.13
2022-09-24T16:40:30.312Z,4.10
2022-09-24T16:45:32.760Z,3.03
2022-09-24T16:50:34.438Z,3.30
2022-09-24T16:55:37.528Z,4.93
2022-09-24T17:00:41.335Z,3.83
2022-09-24T17:05:42.937Z,3.90
2022-09-24T17:10:51.659Z,4.50
2022-09-24T17:15:54.676Z,3.83
2022-09-24T17:21:00.434Z,5.17
2022-09-24T17:26:05.966Z,4.30
2022-09-24T17:31:10.667Z,5.37
2022-09-24T17:36:12.825Z,4.80
2022-09-24T17:41:16.321Z,6.83
2022-09-24T17:46:19.875Z,6.77
2022-09-24T17:51:23.154Z,5.10
2022-09-24T17:56:27.967Z,4.33
2022-09-24T18:01:31.719Z,4.37
2022-09-24T18:06:36.659Z,5.43
2022-09-24T18:11:42.941Z,6.07
2022-09-24T18:16:45.744Z,4.47
2022-09-24T18:21:48.483Z,4.40
2022-09-24T18:26:52.025Z,5.53
2022-09-24T18:31:53.665Z,6.73
2022-09-24T18:36:55.600Z,6.10
2022-09-24T18:41:58.698Z,7.20
2022-09-24T18:47:00.437Z,5.47
2022-09-24T18:52:02.281Z,6.67
2022-09-24T18:57:05.813Z,6.60
2022-09-24T19:02:07.911Z,7.10
2022-09-24T19:07:09.738Z,6.13
2022-09-24T19:12:12.773Z,6.33
2022-09-24T19:17:14.808Z,6.60
2022-09-24T19:22:16.472Z,4.77
2022-09-24T19:27:19.657Z,6.07
2022-09-24T19:32:21.639Z,6.40
2022-09-24T19:37:23.628Z,5.93
2022-09-24T19:42:26.962Z,5.57
2022-09-24T19:47:28.651Z,6.43
2022-09-24T19:52:30.536Z,6.00
2022-09-24T19:57:34.048Z,6.03
2022-09-24T20:02:36.539Z,6.60
2022-09-24T20:07:38.691Z,5.77
2022-09-24T20:12:41.903Z,6.97
2022-09-24T20:17:44.692Z,6.13
2022-09-24T20:22:46.396Z,6.83
2022-09-24T20:27:49.574Z,7.07
2022-09-24T20:32:51.561Z,6.17
2022-09-24T20:37:53.413Z,6.57
2022-09-24T20:42:56.543Z,5.90
2022-09-24T20:47:58.278Z,5.00
2022-09-24T20:53:00.008Z,6.27
2022-09-24T20:58:03.033Z,5.60
2022-09-24T21:03:20.228Z,6.97
2022-09-24T21:08:26.384Z,6.90
2022-09-24T21:13:29.402Z,6.73
2022-09-24T21:18:39.610Z,8.27
2022-09-24T21:23:43.348Z,5.77
2022-09-24T21:28:48.818Z,5.43
2022-09-24T21:33:52.107Z,8.67
2022-09-24T21:38:54.804Z,6.73
2022-09-24T21:43:58.303Z,6.10
2022-09-24T21:49:01.246Z,6.30
2022-09-24T21:54:05.287Z,6.63
2022-09-24T21:59:08.662Z,9.37
2022-09-24T22:04:10.372Z,7.30
2022-09-24T22:09:12.014Z,6.60
2022-09-24T22:14:15.156Z,5.73
2022-09-24T22:19:16.909Z,6.33
2022-09-24T22:24:19.094Z,6.10
2022-09-24T22:29:22.606Z,6.77
2022-09-24T22:34:24.886Z,5.93
2022-09-24T22:39:26.803Z,5.97
2022-09-24T22:44:29.822Z,6.67
2022-09-24T22:49:31.509Z,6.83
2022-09-24T22:54:33.171Z,7.57
2022-09-24T22:59:36.154Z,5.33
2022-09-24T23:04:38.324Z,5.60
2022-09-24T23:09:40.020Z,5.83
2022-09-24T23:14:43.592Z,6.47
2022-09-24T23:19:45.285Z,5.97
2022-09-24T23:24:47.452Z,5.70
2022-09-24T23:29:51.317Z,6.57
2022-09-24T23:34:53.261Z,5.70
2022-09-24T23:39:55.528Z,5.40
2022-09-24T23:44:58.483Z,6.43
2022-09-24T23:50:00.076Z,5.63
2022-09-24T23:55:01.736Z,5.47
